createdAt,value
2023-02-23T00:00:21.476Z,68.43
2023-02-23T00:02:49.304Z,69.13
2023-02-23T00:05:22.434Z,68.99
2023-02-23T00:07:49.010Z,68.87
2023-02-23T00:10:15.582Z,68.84
2023-02-23T00:13:02.225Z,69.05
2023-02-23T00:15:29.007Z,69.09
2023-02-23T00:18:02.857Z,68.97
2023-02-23T00:20:29.321Z,69.21
2023-02-23T00:22:58.526Z,68.94
2023-02-23T00:25:25.624Z,69.03
2023-02-23T00:27:52.342Z,69.28
2023-02-23T00:30:19.930Z,68.72
2023-02-23T00:32:46.941Z,68.41
2023-02-23T00:35:13.526Z,68.20
2023-02-23T00:37:40.058Z,68.09
2023-02-23T00:40:06.943Z,67.82
2023-02-23T00:42:35.357Z,68.40
2023-02-23T00:45:04.317Z,67.53
2023-02-23T00:47:30.900Z,68.00
2023-02-23T00:50:04.753Z,67.87
2023-02-23T00:52:31.569Z,67.60
2023-02-23T00:55:01.393Z,68.64
2023-02-23T00:57:27.913Z,68.48
2023-02-23T00:59:54.445Z,68.40
2023-02-23T01:02:20.982Z,68.08
2023-02-23T01:04:47.541Z,68.54
2023-02-23T01:07:16.680Z,68.43
2023-02-23T01:09:43.180Z,68.23
2023-02-23T01:12:09.653Z,68.90
2023-02-23T01:14:37.112Z,68.49
2023-02-23T01:17:03.696Z,68.80
2023-02-23T01:19:30.326Z,68.24
2023-02-23T01:22:02.044Z,68.04
2023-02-23T01:24:31.163Z,68.98
2023-02-23T01:26:57.755Z,68.67
2023-02-23T01:29:24.406Z,68.63
2023-02-23T01:31:51.306Z,69.38
2023-02-23T01:34:19.973Z,69.43
2023-02-23T01:36:46.496Z,68.89
2023-02-23T01:39:21.127Z,69.40
2023-02-23T01:41:48.620Z,69.46
2023-02-23T01:44:15.113Z,69.87
2023-02-23T01:46:45.203Z,70.19
2023-02-23T01:49:19.598Z,69.89
2023-02-23T01:51:52.277Z,69.24
2023-02-23T01:54:24.396Z,69.63
2023-02-23T01:56:55.131Z,69.91
2023-02-23T01:59:21.881Z,69.73
2023-02-23T02:01:48.400Z,70.09
2023-02-23T02:04:15.170Z,69.95
2023-02-23T02:06:45.738Z,69.44
2023-02-23T02:09:16.323Z,69.29
2023-02-23T02:11:43.290Z,69.36
2023-02-23T02:14:15.950Z,69.56
2023-02-23T02:17:04.770Z,69.82
2023-02-23T02:20:07.480Z,70.12
2023-02-23T02:23:14.584Z,69.63
2023-02-23T02:26:03.618Z,69.37
2023-02-23T02:28:54.797Z,68.42
2023-02-23T02:31:39.834Z,68.48
2023-02-23T02:34:21.255Z,68.75
2023-02-23T02:37:08.942Z,68.46
2023-02-23T02:39:52.688Z,67.81
2023-02-23T02:42:38.524Z,67.75
2023-02-23T02:45:26.815Z,67.77
2023-02-23T02:48:08.593Z,67.61
2023-02-23T02:50:58.039Z,67.28
2023-02-23T02:53:33.194Z,67.16
2023-02-23T02:56:04.103Z,67.58
2023-02-23T02:58:31.644Z,67.43
2023-02-23T03:01:07.356Z,67.98
2023-02-23T03:03:38.785Z,68.07
2023-02-23T03:06:05.526Z,68.15
2023-02-23T03:08:44.762Z,68.66
2023-02-23T03:11:14.285Z,68.11
2023-02-23T03:14:12.823Z,68.77
2023-02-23T03:16:56.436Z,68.84
2023-02-23T03:19:30.109Z,68.64
2023-02-23T03:22:34.699Z,69.28
2023-02-23T03:25:14.389Z,69.40
2023-02-23T03:28:05.958Z,69.94
2023-02-23T03:30:45.883Z,69.76
2023-02-23T03:33:23.838Z,69.25
2023-02-23T03:36:19.203Z,68.96
2023-02-23T03:38:58.627Z,68.53
2023-02-23T03:41:29.241Z,67.97
2023-02-23T03:44:01.934Z,68.03
2023-02-23T03:46:31.901Z,69.52
2023-02-23T03:49:04.688Z,69.04
2023-02-23T03:51:36.898Z,69.65
2023-02-23T03:54:13.434Z,69.43
2023-02-23T03:56:45.909Z,68.87
2023-02-23T03:59:18.716Z,69.20
2023-02-23T04:01:48.105Z,68.16
2023-02-23T04:04:14.622Z,68.51
2023-02-23T04:06:46.555Z,68.43
2023-02-23T04:09:13.498Z,68.38
2023-02-23T04:11:56.342Z,68.77
2023-02-23T04:14:37.808Z,69.97
2023-02-23T04:17:07.000Z,70.34
2023-02-23T04:19:33.521Z,70.12
2023-02-23T04:22:00.017Z,69.71
2023-02-23T04:24:26.563Z,70.05
2023-02-23T04:26:53.060Z,69.75
2023-02-23T04:29:19.540Z,69.34
2023-02-23T04:31:46.217Z,69.31
2023-02-23T04:34:12.749Z,69.70
2023-02-23T04:36:39.350Z,68.93
2023-02-23T04:39:05.976Z,69.08
2023-02-23T04:41:32.494Z,68.62
2023-02-23T04:43:58.978Z,69.47
2023-02-23T04:46:25.544Z,69.10
2023-02-23T04:48:52.020Z,69.70
2023-02-23T04:51:18.884Z,69.59
2023-02-23T04:53:45.816Z,69.11
2023-02-23T04:56:12.284Z,68.78
2023-02-23T04:58:38.881Z,68.70
2023-02-23T05:01:08.198Z,69.04
2023-02-23T05:03:34.792Z,69.27
2023-02-23T05:06:01.362Z,69.08
2023-02-23T05:08:27.835Z,69.20
2023-02-23T05:10:54.441Z,69.46
2023-02-23T05:13:21.059Z,69.48
2023-02-23T05:15:47.636Z,69.49
2023-02-23T05:18:14.348Z,69.27
2023-02-23T05:20:44.203Z,69.24
2023-02-23T05:23:11.636Z,68.93
2023-02-23T05:25:39.162Z,69.34
2023-02-23T05:28:05.941Z,68.92
2023-02-23T05:30:32.921Z,69.14
2023-02-23T05:32:59.641Z,68.71
2023-02-23T05:35:26.305Z,68.82
2023-02-23T05:37:52.881Z,69.26
2023-02-23T05:40:19.444Z,69.06
2023-02-23T05:42:46.095Z,69.11
2023-02-23T05:45:15.299Z,69.18
2023-02-23T05:47:41.856Z,69.24
2023-02-23T05:50:10.229Z,69.19
2023-02-23T05:52:40.732Z,69.81
2023-02-23T05:55:09.631Z,69.30
2023-02-23T05:57:36.160Z,69.33
2023-02-23T06:00:04.116Z,69.67
2023-02-23T06:02:30.666Z,68.94
2023-02-23T06:04:57.198Z,69.32
2023-02-23T06:07:23.813Z,69.48
2023-02-23T06:09:50.404Z,69.42
2023-02-23T06:12:16.897Z,69.95
2023-02-23T06:14:43.426Z,69.00
2023-02-23T06:17:09.966Z,69.19
2023-02-23T06:19:36.500Z,69.43
2023-02-23T06:22:03.075Z,69.09
2023-02-23T06:24:29.573Z,69.47
2023-02-23T06:26:56.194Z,69.23
2023-02-23T06:29:22.789Z,69.38
2023-02-23T06:31:49.423Z,68.70
2023-02-23T06:34:15.951Z,69.11
2023-02-23T06:36:42.521Z,68.42
2023-02-23T06:39:11.426Z,68.60
2023-02-23T06:41:38.293Z,68.04
2023-02-23T06:44:04.965Z,68.07
2023-02-23T06:46:31.619Z,67.73
2023-02-23T06:48:58.482Z,68.18
2023-02-23T06:51:25.156Z,68.68
2023-02-23T06:53:51.944Z,68.71
2023-02-23T06:56:18.971Z,68.33
2023-02-23T06:58:45.482Z,68.39
2023-02-23T07:01:12.089Z,68.39
2023-02-23T07:03:38.918Z,68.51
2023-02-23T07:06:05.749Z,68.70
2023-02-23T07:08:33.713Z,68.89
2023-02-23T07:11:12.079Z,68.50
2023-02-23T07:13:39.343Z,68.76
2023-02-23T07:16:07.277Z,68.53
2023-02-23T07:18:34.320Z,68.15
2023-02-23T07:21:00.805Z,67.47
2023-02-23T07:23:27.411Z,68.17
2023-02-23T07:25:54.284Z,68.40
2023-02-23T07:28:20.771Z,69.20
2023-02-23T07:30:47.364Z,70.25
2023-02-23T07:33:14.011Z,70.97
2023-02-23T07:35:40.502Z,71.03
2023-02-23T07:38:07.045Z,70.58
2023-02-23T07:40:33.520Z,70.55
2023-02-23T07:43:00.105Z,70.95
2023-02-23T07:45:26.671Z,70.94
2023-02-23T07:47:53.217Z,70.32
2023-02-23T07:50:19.818Z,70.07
2023-02-23T07:52:46.397Z,70.09
2023-02-23T07:55:12.907Z,70.25
2023-02-23T07:57:39.522Z,69.69
2023-02-23T08:00:07.887Z,68.31
2023-02-23T08:02:34.479Z,68.53
2023-02-23T08:05:01.091Z,67.74
2023-02-23T08:07:27.647Z,66.78
2023-02-23T08:09:54.181Z,66.31
2023-02-23T08:12:20.708Z,66.19
2023-02-23T08:14:47.649Z,65.50
2023-02-23T08:17:14.208Z,64.71
2023-02-23T08:19:40.722Z,64.68
2023-02-23T08:22:09.899Z,64.81
2023-02-23T08:24:37.121Z,63.99
2023-02-23T08:27:04.229Z,64.03
2023-02-23T08:29:31.095Z,64.26
2023-02-23T08:31:59.002Z,63.52
2023-02-23T08:34:25.629Z,63.26
2023-02-23T08:36:52.095Z,63.77
2023-02-23T08:39:18.871Z,63.68
2023-02-23T08:41:45.390Z,63.92
2023-02-23T08:44:12.030Z,65.05
2023-02-23T08:46:38.542Z,66.04
2023-02-23T08:49:05.160Z,66.50
2023-02-23T08:51:32.938Z,66.63
2023-02-23T08:53:59.466Z,65.99
2023-02-23T08:56:26.046Z,65.62
2023-02-23T08:58:52.573Z,65.27
2023-02-23T09:01:24.990Z,65.13
2023-02-23T09:03:53.753Z,66.22
2023-02-23T09:06:29.955Z,66.47
2023-02-23T09:08:56.534Z,66.49
2023-02-23T09:11:24.272Z,66.48
2023-02-23T09:13:50.909Z,66.56
2023-02-23T09:16:17.550Z,65.74
2023-02-23T09:18:44.640Z,65.43
2023-02-23T09:21:18.289Z,65.27
2023-02-23T09:23:45.446Z,65.19
2023-02-23T09:26:12.040Z,65.24
2023-02-23T09:28:38.631Z,64.82
2023-02-23T09:31:07.641Z,64.10
2023-02-23T09:33:35.068Z,64.01
2023-02-23T09:36:08.846Z,64.07
2023-02-23T09:38:35.348Z,64.65
2023-02-23T09:41:02.027Z,64.94
2023-02-23T09:43:50.678Z,66.18
2023-02-23T09:46:41.615Z,66.37
2023-02-23T09:49:17.638Z,66.59
2023-02-23T09:51:51.327Z,64.92
2023-02-23T09:54:19.187Z,64.61
2023-02-23T09:56:48.489Z,64.17
2023-02-23T09:59:21.797Z,63.03
2023-02-23T10:01:52.892Z,62.61
2023-02-23T10:04:25.078Z,62.14
2023-02-23T10:07:04.670Z,62.60
2023-02-23T10:10:07.893Z,62.36
2023-02-23T10:13:02.242Z,61.79
2023-02-23T10:15:42.455Z,61.01
2023-02-23T10:18:30.681Z,60.86
2023-02-23T10:21:11.798Z,61.33
2023-02-23T10:23:46.195Z,61.59
2023-02-23T10:26:21.455Z,60.96
2023-02-23T10:28:48.962Z,61.12
2023-02-23T10:31:44.196Z,61.44
2023-02-23T10:34:16.520Z,61.64
2023-02-23T10:37:04.452Z,60.88
2023-02-23T10:39:32.891Z,60.87
2023-02-23T10:42:05.744Z,60.60
2023-02-23T10:44:32.307Z,59.98
2023-02-23T10:47:06.445Z,59.96
2023-02-23T10:49:45.015Z,59.54
2023-02-23T10:52:42.529Z,59.78
2023-02-23T10:55:22.739Z,60.27
2023-02-23T10:57:51.012Z,60.75
2023-02-23T11:00:17.418Z,60.11
2023-02-23T11:02:45.850Z,60.14
2023-02-23T11:05:35.778Z,60.73
2023-02-23T11:08:37.019Z,60.00
2023-02-23T11:11:15.941Z,60.68
2023-02-23T11:13:45.309Z,60.48
2023-02-23T11:16:20.602Z,66.45
2023-02-23T11:19:02.836Z,68.45
2023-02-23T11:21:33.101Z,70.40
2023-02-23T11:24:22.233Z,68.29
2023-02-23T11:26:52.613Z,65.62
2023-02-23T11:29:38.613Z,63.92
2023-02-23T11:32:22.578Z,65.03
2023-02-23T11:35:14.037Z,64.59
2023-02-23T11:37:40.538Z,64.35
2023-02-23T11:40:26.660Z,63.43
2023-02-23T11:43:05.854Z,61.55
2023-02-23T11:45:43.727Z,61.25
2023-02-23T11:48:33.012Z,60.69
2023-02-23T11:51:01.322Z,60.64
2023-02-23T11:53:34.960Z,60.52
2023-02-23T11:56:05.508Z,59.75
2023-02-23T11:58:39.214Z,60.62
2023-02-23T12:01:09.265Z,59.34
2023-02-23T12:03:36.444Z,58.44
2023-02-23T12:06:03.135Z,58.56
2023-02-23T12:08:35.220Z,58.87
2023-02-23T12:11:12.968Z,58.69
2023-02-23T12:13:46.205Z,58.29
2023-02-23T12:16:29.830Z,58.79
2023-02-23T12:19:06.325Z,59.07
2023-02-23T12:21:44.722Z,58.51
2023-02-23T12:24:29.865Z,58.72
2023-02-23T12:27:09.041Z,58.19
2023-02-23T12:30:03.458Z,57.40
2023-02-23T12:32:45.603Z,57.73
2023-02-23T12:35:37.742Z,57.31
2023-02-23T12:38:12.643Z,56.74
2023-02-23T12:40:41.625Z,57.23
2023-02-23T12:43:40.246Z,57.67
2023-02-23T12:46:14.628Z,56.39
2023-02-23T12:49:02.144Z,56.37
2023-02-23T12:51:28.617Z,57.09
2023-02-23T12:53:55.287Z,55.75
2023-02-23T12:56:32.005Z,55.47
2023-02-23T12:59:36.899Z,54.21
2023-02-23T13:02:14.632Z,53.17
2023-02-23T13:05:03.629Z,53.33
2023-02-23T13:07:53.966Z,53.81
2023-02-23T13:10:44.684Z,54.02
2023-02-23T13:13:27.487Z,54.22
2023-02-23T13:16:02.390Z,53.74
2023-02-23T13:19:05.055Z,53.88
2023-02-23T13:21:47.803Z,54.53
2023-02-23T13:24:25.036Z,54.09
2023-02-23T13:27:18.165Z,53.47
2023-02-23T13:29:47.681Z,52.70
2023-02-23T13:32:19.228Z,51.89
2023-02-23T13:34:52.104Z,51.26
2023-02-23T13:37:23.919Z,51.39
2023-02-23T13:40:24.375Z,50.86
2023-02-23T13:43:16.677Z,50.31
2023-02-23T13:46:17.279Z,49.75
2023-02-23T13:48:58.412Z,50.03
2023-02-23T13:51:39.277Z,49.83
2023-02-23T13:54:26.141Z,50.09
2023-02-23T13:56:59.613Z,50.47
2023-02-23T13:59:30.245Z,50.26
2023-02-23T14:01:59.674Z,49.88
2023-02-23T14:04:34.114Z,50.08
2023-02-23T14:07:17.932Z,49.79
2023-02-23T14:09:58.491Z,50.06
2023-02-23T14:12:42.594Z,50.27
2023-02-23T14:15:24.543Z,50.10
2023-02-23T14:17:56.993Z,50.39
2023-02-23T14:20:44.292Z,49.98
2023-02-23T14:23:29.485Z,50.02
2023-02-23T14:26:13.904Z,49.75
2023-02-23T14:28:45.048Z,48.70
2023-02-23T14:31:14.395Z,48.66
2023-02-23T14:33:43.708Z,48.08
2023-02-23T14:36:25.320Z,47.13
2023-02-23T14:39:00.999Z,46.30
2023-02-23T14:41:33.988Z,46.73
2023-02-23T14:44:27.115Z,46.59
2023-02-23T14:47:17.428Z,46.87
2023-02-23T14:50:02.478Z,46.85
2023-02-23T14:52:35.044Z,48.15
2023-02-23T14:55:27.922Z,47.75
2023-02-23T14:57:55.325Z,47.57
2023-02-23T15:00:26.056Z,47.67
2023-02-23T15:03:08.075Z,48.50
2023-02-23T15:05:42.477Z,48.15
2023-02-23T15:08:16.964Z,48.33
2023-02-23T15:10:49.979Z,48.54
2023-02-23T15:13:31.698Z,48.33
2023-02-23T15:16:05.198Z,48.15
2023-02-23T15:18:38.566Z,47.71
2023-02-23T15:21:16.043Z,47.71
2023-02-23T15:23:48.725Z,47.66
2023-02-23T15:26:24.209Z,47.50
2023-02-23T15:28:51.431Z,47.62
2023-02-23T15:31:19.357Z,47.36
2023-02-23T15:33:46.087Z,47.42
2023-02-23T15:36:30.504Z,47.13
2023-02-23T15:39:04.490Z,47.19
2023-02-23T15:41:37.081Z,47.07
2023-02-23T15:44:14.826Z,45.96
2023-02-23T15:46:44.854Z,45.71
2023-02-23T15:49:13.631Z,45.54
2023-02-23T15:51:51.444Z,45.41
2023-02-23T15:54:24.423Z,44.86
2023-02-23T15:56:56.796Z,45.23
2023-02-23T15:59:29.936Z,45.07
2023-02-23T16:02:03.620Z,44.87
2023-02-23T16:04:33.544Z,44.98
2023-02-23T16:07:18.053Z,45.59
2023-02-23T16:10:03.193Z,45.66
2023-02-23T16:12:35.486Z,46.31
2023-02-23T16:15:17.655Z,46.34
2023-02-23T16:17:47.464Z,46.16
2023-02-23T16:20:33.537Z,46.69
2023-02-23T16:23:02.282Z,47.38
2023-02-23T16:25:31.632Z,48.21
2023-02-23T16:28:05.391Z,48.13
2023-02-23T16:30:31.875Z,48.15
2023-02-23T16:33:22.364Z,49.26
2023-02-23T16:36:05.364Z,49.00
2023-02-23T16:38:37.875Z,49.29
2023-02-23T16:41:10.458Z,50.12
2023-02-23T16:43:37.453Z,51.15
2023-02-23T16:46:04.129Z,51.00
2023-02-23T16:48:30.703Z,50.98
2023-02-23T16:50:57.298Z,51.23
2023-02-23T16:53:23.835Z,51.79
2023-02-23T16:55:53.996Z,52.37
2023-02-23T16:58:26.167Z,52.49
2023-02-23T17:00:52.906Z,52.38
2023-02-23T17:03:25.634Z,52.88
2023-02-23T17:05:53.115Z,53.10
2023-02-23T17:08:19.725Z,53.40
2023-02-23T17:10:49.849Z,53.88
2023-02-23T17:13:22.692Z,53.72
2023-02-23T17:15:51.855Z,54.19
2023-02-23T17:20:56.812Z,54.51
2023-02-23T17:23:24.940Z,55.05
2023-02-23T17:25:51.423Z,55.13
2023-02-23T17:28:17.905Z,55.00
2023-02-23T17:30:45.146Z,55.02
2023-02-23T17:33:11.939Z,55.26
2023-02-23T17:35:40.876Z,55.93
2023-02-23T17:38:08.148Z,55.90
2023-02-23T17:40:35.305Z,55.68
2023-02-23T17:43:04.984Z,56.28
2023-02-23T17:45:31.947Z,56.85
2023-02-23T17:47:58.572Z,56.72
2023-02-23T17:50:28.908Z,56.89
2023-02-23T17:52:57.945Z,56.43
2023-02-23T17:55:25.848Z,56.79
2023-02-23T17:57:55.423Z,57.70
2023-02-23T18:00:21.970Z,57.71
2023-02-23T18:02:48.566Z,58.03
2023-02-23T18:05:18.438Z,58.61
2023-02-23T18:07:47.787Z,58.55
2023-02-23T18:10:17.644Z,59.85
2023-02-23T18:12:44.483Z,59.58
2023-02-23T18:15:11.099Z,59.23
2023-02-23T18:17:40.326Z,59.62
2023-02-23T18:20:07.296Z,59.33
2023-02-23T18:22:33.858Z,59.52
2023-02-23T18:25:00.386Z,59.25
2023-02-23T18:27:26.875Z,58.86
2023-02-23T18:29:56.236Z,59.02
2023-02-23T18:32:25.051Z,58.56
2023-02-23T18:34:51.649Z,58.91
2023-02-23T18:37:18.163Z,58.59
2023-02-23T18:39:44.675Z,58.87
2023-02-23T18:42:11.198Z,58.79
2023-02-23T18:44:37.720Z,58.84
2023-02-23T18:47:04.275Z,58.58
2023-02-23T18:49:30.765Z,57.73
2023-02-23T18:51:57.283Z,58.36
2023-02-23T18:54:23.795Z,57.82
2023-02-23T18:56:50.292Z,57.93
2023-02-23T18:59:16.778Z,57.58
2023-02-23T19:01:43.817Z,57.47
2023-02-23T19:04:11.208Z,58.08
2023-02-23T19:06:37.779Z,58.26
2023-02-23T19:09:05.828Z,58.55
2023-02-23T19:11:34.571Z,57.53
2023-02-23T19:14:05.082Z,57.58
2023-02-23T19:16:33.599Z,57.32
2023-02-23T19:19:04.742Z,56.96
2023-02-23T19:21:31.753Z,57.22
2023-02-23T19:23:59.239Z,57.21
2023-02-23T19:26:26.849Z,56.90
2023-02-23T19:28:53.672Z,56.72
2023-02-23T19:31:21.989Z,57.04
2023-02-23T19:33:49.898Z,57.33
2023-02-23T19:36:19.010Z,57.22
2023-02-23T19:38:48.336Z,56.98
2023-02-23T19:41:19.903Z,56.57
2023-02-23T19:43:46.911Z,56.89
2023-02-23T19:46:16.613Z,56.20
2023-02-23T19:48:45.647Z,56.18
2023-02-23T19:51:13.251Z,57.69
2023-02-23T19:53:40.246Z,57.47
2023-02-23T19:56:11.806Z,57.99
2023-02-23T19:58:38.766Z,58.25
2023-02-23T20:01:11.900Z,57.33
2023-02-23T20:03:39.898Z,57.03
2023-02-23T20:06:07.485Z,56.49
2023-02-23T20:08:34.346Z,56.64
2023-02-23T20:11:04.604Z,56.28
2023-02-23T20:13:31.073Z,55.82
2023-02-23T20:16:06.450Z,55.46
2023-02-23T20:18:33.016Z,55.61
2023-02-23T20:20:59.716Z,55.90
2023-02-23T20:23:26.229Z,56.88
2023-02-23T20:25:52.768Z,56.86
2023-02-23T20:28:19.312Z,57.46
2023-02-23T20:30:47.418Z,57.13
2023-02-23T20:33:14.428Z,56.14
2023-02-23T20:35:41.857Z,56.51
2023-02-23T20:38:11.061Z,56.69
2023-02-23T20:40:37.608Z,57.41
2023-02-23T20:43:05.702Z,57.52
2023-02-23T20:45:32.394Z,57.46
2023-02-23T20:47:59.039Z,58.01
2023-02-23T20:50:26.609Z,58.11
2023-02-23T20:52:53.197Z,58.05
2023-02-23T20:55:19.673Z,58.03
2023-02-23T20:57:48.157Z,57.89
2023-02-23T21:00:17.275Z,58.32
2023-02-23T21:02:43.975Z,58.14
2023-02-23T21:05:10.477Z,57.80
2023-02-23T21:07:37.103Z,57.74
2023-02-23T21:10:09.096Z,57.49
2023-02-23T21:12:35.682Z,57.67
2023-02-23T21:15:02.893Z,57.26
2023-02-23T21:17:31.995Z,57.38
2023-02-23T21:19:58.542Z,57.54
2023-02-23T21:22:25.187Z,57.49
2023-02-23T21:24:51.759Z,57.67
2023-02-23T21:27:18.438Z,57.15
2023-02-23T21:29:45.560Z,57.02
2023-02-23T21:32:13.751Z,56.53
2023-02-23T21:34:41.035Z,56.30
2023-02-23T21:37:07.556Z,56.26
2023-02-23T21:39:34.177Z,56.31
2023-02-23T21:42:00.886Z,56.61
2023-02-23T21:44:27.542Z,57.32
2023-02-23T21:46:54.026Z,57.25
2023-02-23T21:49:20.524Z,57.68
2023-02-23T21:51:47.049Z,58.00
2023-02-23T21:54:13.736Z,57.82
2023-02-23T21:56:40.208Z,58.11
2023-02-23T21:59:07.218Z,58.59
2023-02-23T22:01:36.956Z,59.05
2023-02-23T22:04:05.860Z,58.28
2023-02-23T22:06:38.445Z,58.33
2023-02-23T22:09:06.708Z,58.93
2023-02-23T22:11:33.208Z,59.10
2023-02-23T22:14:00.336Z,59.25
2023-02-23T22:16:30.457Z,59.06
2023-02-23T22:18:57.813Z,59.22
2023-02-23T22:21:24.351Z,58.81
2023-02-23T22:23:52.127Z,58.88
2023-02-23T22:26:18.592Z,59.21
2023-02-23T22:28:45.074Z,59.43
2023-02-23T22:31:13.699Z,59.12
2023-02-23T22:33:42.825Z,58.90
2023-02-23T22:36:12.112Z,59.55
2023-02-23T22:38:40.965Z,59.82
2023-02-23T22:41:08.407Z,59.93
2023-02-23T22:43:34.955Z,60.21
2023-02-23T22:46:01.463Z,60.14
2023-02-23T22:48:27.981Z,59.89
2023-02-23T22:50:58.405Z,60.00
2023-02-23T22:53:26.019Z,59.78
2023-02-23T22:55:55.155Z,59.65
2023-02-23T22:58:25.773Z,59.59
2023-02-23T23:00:53.386Z,60.08
2023-02-23T23:03:19.950Z,60.67
2023-02-23T23:05:48.972Z,60.53
2023-02-23T23:08:15.591Z,60.74
2023-02-23T23:10:42.085Z,60.69
2023-02-23T23:13:08.747Z,60.61
2023-02-23T23:15:35.294Z,60.25
2023-02-23T23:18:01.771Z,60.77
2023-02-23T23:20:32.470Z,60.66
2023-02-23T23:22:58.976Z,60.78
2023-02-23T23:25:25.884Z,60.74
2023-02-23T23:27:53.275Z,61.09
2023-02-23T23:30:20.892Z,62.17
2023-02-23T23:32:47.570Z,63.50
2023-02-23T23:35:14.215Z,63.64
2023-02-23T23:37:40.790Z,63.40
2023-02-23T23:40:11.397Z,63.44
2023-02-23T23:42:37.978Z,63.75
2023-02-23T23:45:04.932Z,63.37
2023-02-23T23:47:31.402Z,62.85
2023-02-23T23:49:57.896Z,62.18
2023-02-23T23:52:24.434Z,61.57
2023-02-23T23:54:50.979Z,61.64
2023-02-23T23:57:17.470Z,61.87
2023-02-23T23:59:43.974Z,61.91
